Accueil
METAR-TAF:

METAR-TAF

Aéroports :

Monte Terminillo, Italie

latitude: 42-28N, longitude: 012-59E, altitude: 1874 m

Observation

Le bulletin a été fait il y a 1 heure et 15 minutes, à 06:55 UTC
Vent 23 kt de est/sud-est avec des rafales jusqu'à 34 kt
Température 1°C
Humidité 80%
Pression 1027 hPa

METAR: LIRK 270655Z AUTO 12023G34KT //// 01/M02 Q1027

Heure: 10:10 (08:10 UTC)


TAF: absent

Observations et prévisions météorologiques de plus de 4000 aéroports (messages METAR et TAF).

Les stations disponibles sont représentées par des disques jaunes et rouges sur la carte.

Passer la souris dessus pour voir le nom de la station.

Cliquer dessus pour voir les observations et prévisions météorologiques.

Pour changer de carte: cliquez sur les boutons verts avec une croix noire pour zoomer, sur le bouton vert avec un tiret pour effectuer un zoom arrière, ou sur les flèches vertes pour les cartes adjacentes.


METAR-TAF: